sensor_id;sensor_type;location;lat;lon;timestamp;pressure;altitude;pressure_sealevel;temperature;humidity
54270;BME280;40181;51.560;13.000;2023-02-23T00:02:04;100404.25;;;6.07;100.00
54270;BME280;40181;51.560;13.000;2023-02-23T00:04:34;100402.97;;;5.94;100.00
54270;BME280;40181;51.560;13.000;2023-02-23T00:07:03;100399.09;;;5.81;100.00
54270;BME280;40181;51.560;13.000;2023-02-23T00:09:33;100412.19;;;5.82;100.00
54270;BME280;40181;51.560;13.000;2023-02-23T00:12:05;100410.44;;;5.83;100.00
54270;BME280;40181;51.560;13.000;2023-02-23T00:14:35;100403.69;;;5.61;100.00
54270;BME280;40181;51.560;13.000;2023-02-23T00:17:05;100412.97;;;5.80;100.00
54270;BME280;40181;51.560;13.000;2023-02-23T00:19:38;100406.63;;;5.72;100.00
54270;BME280;40181;51.560;13.000;2023-02-23T00:22:07;100408.25;;;5.68;100.00
54270;BME280;40181;51.560;13.000;2023-02-23T00:24:36;100397.34;;;5.80;100.00
54270;BME280;40181;51.560;13.000;2023-02-23T00:27:09;100402.13;;;5.66;100.00
54270;BME280;40181;51.560;13.000;2023-02-23T00:29:43;100388.41;;;5.72;100.00
54270;BME280;40181;51.560;13.000;2023-02-23T00:32:13;100402.00;;;5.61;100.00
54270;BME280;40181;51.560;13.000;2023-02-23T00:34:44;100402.34;;;5.74;100.00
54270;BME280;40181;51.560;13.000;2023-02-23T00:37:15;100384.31;;;5.80;100.00
54270;BME280;40181;51.560;13.000;2023-02-23T00:39:46;100389.00;;;5.63;100.00
54270;BME280;40181;51.560;13.000;2023-02-23T00:42:19;100386.28;;;5.60;100.00
54270;BME280;40181;51.560;13.000;2023-02-23T00:44:48;100382.38;;;5.45;100.00
54270;BME280;40181;51.560;13.000;2023-02-23T00:47:17;100392.91;;;5.48;100.00
54270;BME280;40181;51.560;13.000;2023-02-23T00:49:47;100387.47;;;5.42;100.00
54270;BME280;40181;51.560;13.000;2023-02-23T00:52:16;100384.16;;;5.46;100.00
54270;BME280;40181;51.560;13.000;2023-02-23T00:54:45;100383.13;;;5.41;100.00
54270;BME280;40181;51.560;13.000;2023-02-23T00:57:14;100388.25;;;5.39;100.00
54270;BME280;40181;51.560;13.000;2023-02-23T00:59:45;100387.34;;;5.37;100.00
54270;BME280;40181;51.560;13.000;2023-02-23T01:02:14;100387.25;;;5.34;100.00
54270;BME280;40181;51.560;13.000;2023-02-23T01:04:43;100393.16;;;5.29;100.00
54270;BME280;40181;51.560;13.000;2023-02-23T01:07:12;100390.00;;;5.39;100.00
54270;BME280;40181;51.560;13.000;2023-02-23T01:09:41;100378.09;;;5.47;100.00
54270;BME280;40181;51.560;13.000;2023-02-23T01:12:11;100373.72;;;5.46;100.00
54270;BME280;40181;51.560;13.000;2023-02-23T01:14:41;100372.72;;;5.14;100.00
54270;BME280;40181;51.560;13.000;2023-02-23T01:17:13;100386.03;;;5.23;100.00
54270;BME280;40181;51.560;13.000;2023-02-23T01:19:42;100393.69;;;5.18;100.00
54270;BME280;40181;51.560;13.000;2023-02-23T01:22:11;100382.03;;;5.34;100.00
54270;BME280;40181;51.560;13.000;2023-02-23T01:24:40;100388.09;;;5.33;100.00
54270;BME280;40181;51.560;13.000;2023-02-23T01:27:09;100385.72;;;5.41;100.00
54270;BME280;40181;51.560;13.000;2023-02-23T01:29:38;100384.84;;;5.40;100.00
54270;BME280;40181;51.560;13.000;2023-02-23T01:32:09;100383.06;;;5.39;100.00
54270;BME280;40181;51.560;13.000;2023-02-23T01:34:38;100381.13;;;5.32;100.00
54270;BME280;40181;51.560;13.000;2023-02-23T01:37:07;100370.63;;;5.31;100.00
54270;BME280;40181;51.560;13.000;2023-02-23T01:39:37;100381.84;;;5.28;100.00
54270;BME280;40181;51.560;13.000;2023-02-23T01:42:09;100370.69;;;5.32;100.00
54270;BME280;40181;51.560;13.000;2023-02-23T01:48:02;100376.69;;;5.30;100.00
54270;BME280;40181;51.560;13.000;2023-02-23T01:50:42;100371.78;;;5.39;100.00
54270;BME280;40181;51.560;13.000;2023-02-23T01:53:14;100364.66;;;5.35;100.00
54270;BME280;40181;51.560;13.000;2023-02-23T01:55:46;100364.28;;;5.50;100.00
54270;BME280;40181;51.560;13.000;2023-02-23T01:58:20;100354.75;;;5.50;100.00
54270;BME280;40181;51.560;13.000;2023-02-23T02:00:53;100356.34;;;5.45;100.00
54270;BME280;40181;51.560;13.000;2023-02-23T02:03:32;100364.28;;;5.50;100.00
54270;BME280;40181;51.560;13.000;2023-02-23T02:06:06;100350.16;;;5.42;100.00
54270;BME280;40181;51.560;13.000;2023-02-23T02:08:37;100349.81;;;5.60;100.00
54270;BME280;40181;51.560;13.000;2023-02-23T02:11:10;100351.69;;;5.64;100.00
54270;BME280;40181;51.560;13.000;2023-02-23T02:13:51;100336.88;;;5.63;100.00
54270;BME280;40181;51.560;13.000;2023-02-23T02:16:50;100336.91;;;5.64;100.00
54270;BME280;40181;51.560;13.000;2023-02-23T02:20:07;100337.41;;;5.51;100.00
54270;BME280;40181;51.560;13.000;2023-02-23T02:23:19;100337.75;;;5.63;100.00
54270;BME280;40181;51.560;13.000;2023-02-23T02:26:14;100341.41;;;5.70;100.00
54270;BME280;40181;51.560;13.000;2023-02-23T02:29:19;100334.31;;;5.64;100.00
54270;BME280;40181;51.560;13.000;2023-02-23T02:35:42;100337.75;;;5.63;100.00
54270;BME280;40181;51.560;13.000;2023-02-23T02:38:42;100329.84;;;5.60;100.00
54270;BME280;40181;51.560;13.000;2023-02-23T02:41:22;100324.16;;;5.74;100.00
54270;BME280;40181;51.560;13.000;2023-02-23T02:44:03;100329.38;;;5.74;100.00
54270;BME280;40181;51.560;13.000;2023-02-23T02:46:40;100326.22;;;5.55;100.00
54270;BME280;40181;51.560;13.000;2023-02-23T02:49:17;100314.94;;;5.54;100.00
54270;BME280;40181;51.560;13.000;2023-02-23T02:51:54;100327.84;;;5.51;100.00
54270;BME280;40181;51.560;13.000;2023-02-23T02:54:35;100324.22;;;5.46;100.00
54270;BME280;40181;51.560;13.000;2023-02-23T02:57:07;100318.88;;;5.42;100.00
54270;BME280;40181;51.560;13.000;2023-02-23T02:59:43;100314.97;;;5.27;100.00
54270;BME280;40181;51.560;13.000;2023-02-23T03:02:26;100319.78;;;5.15;100.00
54270;BME280;40181;51.560;13.000;2023-02-23T03:05:12;100307.97;;;5.26;100.00
54270;BME280;40181;51.560;13.000;2023-02-23T03:08:02;100303.69;;;5.28;100.00
54270;BME280;40181;51.560;13.000;2023-02-23T03:10:55;100316.03;;;5.34;100.00
54270;BME280;40181;51.560;13.000;2023-02-23T03:13:47;100305.38;;;5.26;100.00
54270;BME280;40181;51.560;13.000;2023-02-23T03:16:44;100318.34;;;5.24;100.00
54270;BME280;40181;51.560;13.000;2023-02-23T03:19:33;100299.28;;;5.25;100.00
54270;BME280;40181;51.560;13.000;2023-02-23T03:22:22;100298.28;;;5.22;100.00
54270;BME280;40181;51.560;13.000;2023-02-23T03:25:08;100297.56;;;5.26;100.00
54270;BME280;40181;51.560;13.000;2023-02-23T03:28:00;100306.94;;;5.21;100.00
54270;BME280;40181;51.560;13.000;2023-02-23T03:30:53;100304.63;;;5.30;100.00
54270;BME280;40181;51.560;13.000;2023-02-23T03:33:44;100309.81;;;5.01;100.00
54270;BME280;40181;51.560;13.000;2023-02-23T03:36:35;100311.47;;;4.99;100.00
54270;BME280;40181;51.560;13.000;2023-02-23T03:39:24;100329.06;;;5.06;100.00
54270;BME280;40181;51.560;13.000;2023-02-23T03:42:15;100318.66;;;5.06;100.00
54270;BME280;40181;51.560;13.000;2023-02-23T03:45:04;100320.97;;;4.97;100.00
54270;BME280;40181;51.560;13.000;2023-02-23T03:47:49;100321.34;;;5.09;100.00
54270;BME280;40181;51.560;13.000;2023-02-23T03:50:35;100327.19;;;5.02;100.00
54270;BME280;40181;51.560;13.000;2023-02-23T03:53:23;100331.03;;;4.86;100.00
54270;BME280;40181;51.560;13.000;2023-02-23T03:56:12;100325.13;;;4.92;100.00
54270;BME280;40181;51.560;13.000;2023-02-23T03:59:00;100320.00;;;4.95;100.00
54270;BME280;40181;51.560;13.000;2023-02-23T04:01:47;100328.66;;;4.94;100.00
54270;BME280;40181;51.560;13.000;2023-02-23T04:04:32;100323.59;;;4.98;100.00
54270;BME280;40181;51.560;13.000;2023-02-23T04:07:17;100327.72;;;4.92;100.00
54270;BME280;40181;51.560;13.000;2023-02-23T04:10:00;100330.63;;;5.01;100.00
54270;BME280;40181;51.560;13.000;2023-02-23T04:12:48;100326.50;;;5.08;100.00
54270;BME280;40181;51.560;13.000;2023-02-23T04:15:36;100319.13;;;5.22;100.00
54270;BME280;40181;51.560;13.000;2023-02-23T04:18:11;100319.38;;;5.02;100.00
54270;BME280;40181;51.560;13.000;2023-02-23T04:20:41;100316.28;;;5.14;100.00
54270;BME280;40181;51.560;13.000;2023-02-23T04:23:11;100311.38;;;5.23;100.00
54270;BME280;40181;51.560;13.000;2023-02-23T04:25:40;100309.81;;;5.29;100.00
54270;BME280;40181;51.560;13.000;2023-02-23T04:28:09;100311.66;;;5.33;100.00
54270;BME280;40181;51.560;13.000;2023-02-23T04:30:38;100318.88;;;5.42;100.00
54270;BME280;40181;51.560;13.000;2023-02-23T04:33:10;100315.44;;;5.43;100.00
54270;BME280;40181;51.560;13.000;2023-02-23T04:35:40;100306.31;;;5.28;100.00
54270;BME280;40181;51.560;13.000;2023-02-23T04:38:09;100311.06;;;5.42;100.00
54270;BME280;40181;51.560;13.000;2023-02-23T04:40:38;100317.28;;;5.47;100.00
54270;BME280;40181;51.560;13.000;2023-02-23T04:43:08;100316.63;;;5.54;100.00
54270;BME280;40181;51.560;13.000;2023-02-23T04:45:39;100313.09;;;5.52;100.00
54270;BME280;40181;51.560;13.000;2023-02-23T04:48:11;100311.38;;;5.52;100.00
54270;BME280;40181;51.560;13.000;2023-02-23T04:50:40;100318.81;;;5.40;100.00
54270;BME280;40181;51.560;13.000;2023-02-23T04:53:09;100321.50;;;5.42;100.00
54270;BME280;40181;51.560;13.000;2023-02-23T04:55:38;100315.16;;;5.33;100.00
54270;BME280;40181;51.560;13.000;2023-02-23T04:58:08;100326.28;;;5.29;100.00
54270;BME280;40181;51.560;13.000;2023-02-23T05:00:38;100320.88;;;5.50;100.00
54270;BME280;40181;51.560;13.000;2023-02-23T05:03:07;100321.00;;;5.55;100.00
54270;BME280;40181;51.560;13.000;2023-02-23T05:05:41;100309.56;;;5.50;100.00
54270;BME280;40181;51.560;13.000;2023-02-23T05:08:11;100311.50;;;5.57;100.00
54270;BME280;40181;51.560;13.000;2023-02-23T05:10:40;100310.84;;;5.63;100.00
54270;BME280;40181;51.560;13.000;2023-02-23T05:13:09;100311.84;;;5.68;100.00
54270;BME280;40181;51.560;13.000;2023-02-23T05:15:38;100304.78;;;5.64;100.00
54270;BME280;40181;51.560;13.000;2023-02-23T05:18:07;100308.88;;;5.56;100.00
54270;BME280;40181;51.560;13.000;2023-02-23T05:20:41;100315.72;;;5.52;100.00
54270;BME280;40181;51.560;13.000;2023-02-23T05:23:11;100307.38;;;5.64;100.00
54270;BME280;40181;51.560;13.000;2023-02-23T05:25:40;100302.91;;;5.60;100.00
54270;BME280;40181;51.560;13.000;2023-02-23T05:28:09;100305.22;;;5.50;100.00
54270;BME280;40181;51.560;13.000;2023-02-23T05:30:38;100299.50;;;5.62;100.00
54270;BME280;40181;51.560;13.000;2023-02-23T05:33:07;100295.34;;;5.69;100.00
54270;BME280;40181;51.560;13.000;2023-02-23T05:35:41;100293.72;;;5.73;100.00
54270;BME280;40181;51.560;13.000;2023-02-23T05:38:10;100294.28;;;5.62;100.00
54270;BME280;40181;51.560;13.000;2023-02-23T05:40:39;100294.69;;;5.76;100.00
54270;BME280;40181;51.560;13.000;2023-02-23T05:43:08;100298.09;;;5.74;100.00
54270;BME280;40181;51.560;13.000;2023-02-23T05:45:39;100301.84;;;5.84;100.00
54270;BME280;40181;51.560;13.000;2023-02-23T05:48:08;100292.56;;;5.93;100.00
54270;BME280;40181;51.560;13.000;2023-02-23T05:50:40;100293.25;;;5.88;100.00
54270;BME280;40181;51.560;13.000;2023-02-23T05:53:10;100315.28;;;5.98;100.00
54270;BME280;40181;51.560;13.000;2023-02-23T05:55:39;100299.16;;;6.11;100.00
54270;BME280;40181;51.560;13.000;2023-02-23T05:58:08;100295.41;;;6.01;100.00
54270;BME280;40181;51.560;13.000;2023-02-23T06:00:37;100306.44;;;5.92;100.00
54270;BME280;40181;51.560;13.000;2023-02-23T06:03:06;100305.38;;;5.86;100.00
54270;BME280;40181;51.560;13.000;2023-02-23T06:05:35;100298.47;;;5.88;100.00
54270;BME280;40181;51.560;13.000;2023-02-23T06:08:07;100306.03;;;5.78;100.00
54270;BME280;40181;51.560;13.000;2023-02-23T06:10:37;100310.28;;;5.75;100.00
54270;BME280;40181;51.560;13.000;2023-02-23T06:13:06;100313.22;;;5.86;100.00
54270;BME280;40181;51.560;13.000;2023-02-23T06:15:35;100308.88;;;5.86;100.00
54270;BME280;40181;51.560;13.000;2023-02-23T06:18:04;100309.22;;;5.99;100.00
54270;BME280;40181;51.560;13.000;2023-02-23T06:20:35;100308.19;;;5.92;100.00
54270;BME280;40181;51.560;13.000;2023-02-23T06:23:07;100311.66;;;5.92;100.00
54270;BME280;40181;51.560;13.000;2023-02-23T06:25:36;100312.69;;;5.98;100.00
54270;BME280;40181;51.560;13.000;2023-02-23T06:28:05;100307.75;;;6.07;100.00
54270;BME280;40181;51.560;13.000;2023-02-23T06:30:36;100320.75;;;6.05;100.00
54270;BME280;40181;51.560;13.000;2023-02-23T06:33:06;100322.88;;;6.19;100.00
54270;BME280;40181;51.560;13.000;2023-02-23T06:35:35;100326.13;;;6.12;100.00
54270;BME280;40181;51.560;13.000;2023-02-23T06:38:07;100315.75;;;6.13;100.00
54270;BME280;40181;51.560;13.000;2023-02-23T06:40:37;100331.66;;;6.22;100.00
54270;BME280;40181;51.560;13.000;2023-02-23T06:43:07;100326.56;;;6.27;100.00
54270;BME280;40181;51.560;13.000;2023-02-23T06:45:37;100325.63;;;6.25;100.00
54270;BME280;40181;51.560;13.000;2023-02-23T06:48:06;100323.94;;;6.27;100.00
54270;BME280;40181;51.560;13.000;2023-02-23T06:50:35;100319.66;;;6.29;100.00
54270;BME280;40181;51.560;13.000;2023-02-23T06:53:07;100322.38;;;6.34;100.00
54270;BME280;40181;51.560;13.000;2023-02-23T06:55:36;100336.31;;;6.34;100.00
54270;BME280;40181;51.560;13.000;2023-02-23T06:58:06;100332.03;;;6.36;100.00
54270;BME280;40181;51.560;13.000;2023-02-23T07:00:35;100337.25;;;6.38;100.00
54270;BME280;40181;51.560;13.000;2023-02-23T07:03:07;100339.31;;;6.48;100.00
54270;BME280;40181;51.560;13.000;2023-02-23T07:05:36;100338.47;;;6.49;100.00
54270;BME280;40181;51.560;13.000;2023-02-23T07:08:08;100348.00;;;6.49;100.00
54270;BME280;40181;51.560;13.000;2023-02-23T07:10:37;100352.50;;;6.55;100.00
54270;BME280;40181;51.560;13.000;2023-02-23T07:13:06;100352.59;;;6.58;100.00
54270;BME280;40181;51.560;13.000;2023-02-23T07:15:38;100349.78;;;6.50;100.00
54270;BME280;40181;51.560;13.000;2023-02-23T07:18:08;100362.03;;;6.53;100.00
54270;BME280;40181;51.560;13.000;2023-02-23T07:20:37;100354.25;;;6.56;100.00
54270;BME280;40181;51.560;13.000;2023-02-23T07:23:09;100353.41;;;6.55;100.00
54270;BME280;40181;51.560;13.000;2023-02-23T07:25:38;100349.03;;;6.56;100.00
54270;BME280;40181;51.560;13.000;2023-02-23T07:28:07;100355.97;;;6.54;100.00
54270;BME280;40181;51.560;13.000;2023-02-23T07:30:38;100368.94;;;6.50;100.00
54270;BME280;40181;51.560;13.000;2023-02-23T07:33:07;100366.28;;;6.49;100.00
54270;BME280;40181;51.560;13.000;2023-02-23T07:35:36;100364.75;;;6.57;100.00
54270;BME280;40181;51.560;13.000;2023-02-23T07:38:09;100377.06;;;6.63;100.00
54270;BME280;40181;51.560;13.000;2023-02-23T07:40:38;100371.19;;;6.70;100.00
54270;BME280;40181;51.560;13.000;2023-02-23T07:43:07;100363.34;;;6.70;100.00
54270;BME280;40181;51.560;13.000;2023-02-23T07:45:36;100366.03;;;6.73;100.00
54270;BME280;40181;51.560;13.000;2023-02-23T07:48:06;100366.03;;;6.73;100.00
54270;BME280;40181;51.560;13.000;2023-02-23T07:50:35;100374.81;;;6.77;100.00
54270;BME280;40181;51.560;13.000;2023-02-23T07:53:04;100368.00;;;6.82;100.00
54270;BME280;40181;51.560;13.000;2023-02-23T07:55:35;100370.69;;;6.85;100.00
54270;BME280;40181;51.560;13.000;2023-02-23T07:58:06;100368.25;;;6.93;100.00
54270;BME280;40181;51.560;13.000;2023-02-23T08:00:38;100378.72;;;6.93;100.00
54270;BME280;40181;51.560;13.000;2023-02-23T08:03:07;100374.44;;;6.97;100.00
54270;BME280;40181;51.560;13.000;2023-02-23T08:05:36;100381.59;;;7.02;100.00
54270;BME280;40181;51.560;13.000;2023-02-23T08:08:06;100372.97;;;7.06;100.00
54270;BME280;40181;51.560;13.000;2023-02-23T08:10:38;100384.25;;;7.05;100.00
54270;BME280;40181;51.560;13.000;2023-02-23T08:13:07;100383.63;;;7.16;100.00
54270;BME280;40181;51.560;13.000;2023-02-23T08:15:36;100384.94;;;6.98;100.00
54270;BME280;40181;51.560;13.000;2023-02-23T08:18:05;100387.00;;;7.10;100.00
54270;BME280;40181;51.560;13.000;2023-02-23T08:20:35;100381.69;;;7.07;100.00
54270;BME280;40181;51.560;13.000;2023-02-23T08:23:04;100378.88;;;6.99;100.00
54270;BME280;40181;51.560;13.000;2023-02-23T08:25:37;100388.13;;;6.86;100.00
54270;BME280;40181;51.560;13.000;2023-02-23T08:28:06;100378.19;;;7.06;100.00
54270;BME280;40181;51.560;13.000;2023-02-23T08:30:35;100385.34;;;7.15;100.00
54270;BME280;40181;51.560;13.000;2023-02-23T08:33:04;100383.69;;;7.19;100.00
54270;BME280;40181;51.560;13.000;2023-02-23T08:35:34;100386.25;;;7.16;100.00
54270;BME280;40181;51.560;13.000;2023-02-23T08:38:02;100390.69;;;7.18;100.00
54270;BME280;40181;51.560;13.000;2023-02-23T08:40:32;100384.38;;;7.10;100.00
54270;BME280;40181;51.560;13.000;2023-02-23T08:43:03;100384.31;;;7.09;100.00
54270;BME280;40181;51.560;13.000;2023-02-23T08:45:32;100393.88;;;7.06;100.00
54270;BME280;40181;51.560;13.000;2023-02-23T08:48:03;100391.47;;;7.16;100.00
54270;BME280;40181;51.560;13.000;2023-02-23T08:50:33;100388.56;;;7.39;100.00
54270;BME280;40181;51.560;13.000;2023-02-23T08:53:02;100385.78;;;7.32;100.00
54270;BME280;40181;51.560;13.000;2023-02-23T08:55:31;100379.53;;;7.26;100.00
54270;BME280;40181;51.560;13.000;2023-02-23T08:58:04;100390.09;;;7.30;100.00
54270;BME280;40181;51.560;13.000;2023-02-23T09:00:35;100383.34;;;7.40;100.00
54270;BME280;40181;51.560;13.000;2023-02-23T09:03:05;100393.56;;;7.31;100.00
54270;BME280;40181;51.560;13.000;2023-02-23T09:05:36;100389.34;;;7.36;100.00
54270;BME280;40181;51.560;13.000;2023-02-23T09:08:05;100391.28;;;7.43;100.00
54270;BME280;40181;51.560;13.000;2023-02-23T09:10:34;100390.75;;;7.58;100.00
54270;BME280;40181;51.560;13.000;2023-02-23T09:13:06;100392.28;;;7.50;100.00
54270;BME280;40181;51.560;13.000;2023-02-23T09:15:35;100388.03;;;7.54;100.00
54270;BME280;40181;51.560;13.000;2023-02-23T09:18:06;100393.16;;;7.51;100.00
54270;BME280;40181;51.560;13.000;2023-02-23T09:20:40;100384.81;;;7.66;100.00
54270;BME280;40181;51.560;13.000;2023-02-23T09:23:10;100388.19;;;7.61;100.00
54270;BME280;40181;51.560;13.000;2023-02-23T09:25:39;100379.84;;;7.78;100.00
54270;BME280;40181;51.560;13.000;2023-02-23T09:28:14;100372.00;;;7.78;100.00
54270;BME280;40181;51.560;13.000;2023-02-23T09:30:45;100383.06;;;7.66;100.00
54270;BME280;40181;51.560;13.000;2023-02-23T09:33:15;100387.59;;;7.73;100.00
54270;BME280;40181;51.560;13.000;2023-02-23T09:35:44;100382.28;;;7.70;100.00
54270;BME280;40181;51.560;13.000;2023-02-23T09:38:13;100384.28;;;7.82;100.00
54270;BME280;40181;51.560;13.000;2023-02-23T09:40:44;100377.97;;;7.72;100.00
54270;BME280;40181;51.560;13.000;2023-02-23T09:43:21;100376.81;;;7.59;100.00
54270;BME280;40181;51.560;13.000;2023-02-23T09:45:59;100394.06;;;7.51;100.00
54270;BME280;40181;51.560;13.000;2023-02-23T09:48:32;100378.69;;;7.65;100.00
54270;BME280;40181;51.560;13.000;2023-02-23T09:51:05;100381.28;;;7.65;100.00
54270;BME280;40181;51.560;13.000;2023-02-23T09:53:38;100383.00;;;7.65;100.00
54270;BME280;40181;51.560;13.000;2023-02-23T09:56:13;100382.00;;;7.58;100.00
54270;BME280;40181;51.560;13.000;2023-02-23T09:58:50;100391.22;;;7.80;100.00
54270;BME280;40181;51.560;13.000;2023-02-23T10:01:55;100384.47;;;7.92;100.00
54270;BME280;40181;51.560;13.000;2023-02-23T10:04:34;100396.84;;;7.99;100.00
54270;BME280;40181;51.560;13.000;2023-02-23T10:07:12;100392.69;;;8.10;100.00
54270;BME280;40181;51.560;13.000;2023-02-23T10:09:58;100398.69;;;8.05;100.00
54270;BME280;40181;51.560;13.000;2023-02-23T10:12:39;100389.38;;;8.17;100.00
54270;BME280;40181;51.560;13.000;2023-02-23T10:15:23;100384.31;;;8.25;100.00
54270;BME280;40181;51.560;13.000;2023-02-23T10:18:05;100394.38;;;8.05;100.00
54270;BME280;40181;51.560;13.000;2023-02-23T10:20:47;100392.09;;;8.22;100.00
54270;BME280;40181;51.560;13.000;2023-02-23T10:23:26;100395.59;;;8.23;100.00
54270;BME280;40181;51.560;13.000;2023-02-23T10:25:59;100386.97;;;8.28;100.00
54270;BME280;40181;51.560;13.000;2023-02-23T10:28:33;100395.06;;;8.39;100.00
54270;BME280;40181;51.560;13.000;2023-02-23T10:31:19;100389.00;;;8.43;100.00
54270;BME280;40181;51.560;13.000;2023-02-23T10:33:56;100396.47;;;8.66;100.00
54270;BME280;40181;51.560;13.000;2023-02-23T10:36:32;100382.47;;;8.66;100.00
54270;BME280;40181;51.560;13.000;2023-02-23T10:39:08;100388.69;;;8.71;100.00
54270;BME280;40181;51.560;13.000;2023-02-23T10:41:42;100393.91;;;8.69;100.00
54270;BME280;40181;51.560;13.000;2023-02-23T10:44:17;100394.34;;;8.94;100.00
54270;BME280;40181;51.560;13.000;2023-02-23T10:46:53;100388.03;;;8.84;100.00
54270;BME280;40181;51.560;13.000;2023-02-23T10:49:26;100389.97;;;8.93;100.00
54270;BME280;40181;51.560;13.000;2023-02-23T10:51:59;100385.59;;;8.92;100.00
54270;BME280;40181;51.560;13.000;2023-02-23T10:54:39;100387.44;;;8.99;100.00
54270;BME280;40181;51.560;13.000;2023-02-23T10:57:20;100385.19;;;9.21;100.00
54270;BME280;40181;51.560;13.000;2023-02-23T11:00:00;100389.53;;;9.19;100.00
54270;BME280;40181;51.560;13.000;2023-02-23T11:02:41;100392.44;;;9.38;100.00
54270;BME280;40181;51.560;13.000;2023-02-23T11:05:33;100366.28;;;9.44;100.00
54270;BME280;40181;51.560;13.000;2023-02-23T11:08:09;100380.41;;;9.51;100.00
54270;BME280;40181;51.560;13.000;2023-02-23T11:11:02;100368.28;;;9.61;100.00
54270;BME280;40181;51.560;13.000;2023-02-23T11:13:37;100368.34;;;9.64;100.00
54270;BME280;40181;51.560;13.000;2023-02-23T11:16:10;100370.28;;;9.80;100.00
54270;BME280;40181;51.560;13.000;2023-02-23T11:18:49;100372.09;;;9.83;100.00
54270;BME280;40181;51.560;13.000;2023-02-23T11:21:24;100372.16;;;9.88;100.00
54270;BME280;40181;51.560;13.000;2023-02-23T11:23:56;100359.94;;;9.91;100.00
54270;BME280;40181;51.560;13.000;2023-02-23T11:26:32;100363.63;;;10.04;100.00
54270;BME280;40181;51.560;13.000;2023-02-23T11:29:13;100367.06;;;10.00;100.00
54270;BME280;40181;51.560;13.000;2023-02-23T11:31:49;100363.66;;;10.06;100.00
54270;BME280;40181;51.560;13.000;2023-02-23T11:34:27;100353.19;;;10.10;100.00
54270;BME280;40181;51.560;13.000;2023-02-23T11:37:00;100355.94;;;10.20;100.00
54270;BME280;40181;51.560;13.000;2023-02-23T11:39:32;100365.56;;;10.21;100.00
54270;BME280;40181;51.560;13.000;2023-02-23T11:42:13;100359.47;;;10.25;100.00
54270;BME280;40181;51.560;13.000;2023-02-23T11:44:49;100354.28;;;10.28;100.00
54270;BME280;40181;51.560;13.000;2023-02-23T11:47:21;100355.16;;;10.29;100.00
54270;BME280;40181;51.560;13.000;2023-02-23T11:49:54;100354.06;;;10.09;99.56
54270;BME280;40181;51.560;13.000;2023-02-23T11:52:24;100342.88;;;10.28;99.58
54270;BME280;40181;51.560;13.000;2023-02-23T11:54:57;100340.38;;;10.38;99.95
54270;BME280;40181;51.560;13.000;2023-02-23T11:57:29;100349.25;;;10.47;99.02
54270;BME280;40181;51.560;13.000;2023-02-23T12:00:07;100330.00;;;10.48;97.21
54270;BME280;40181;51.560;13.000;2023-02-23T12:02:47;100333.63;;;10.61;96.47
54270;BME280;40181;51.560;13.000;2023-02-23T12:05:23;100326.66;;;10.64;95.51
54270;BME280;40181;51.560;13.000;2023-02-23T12:07:58;100328.50;;;10.75;95.13
54270;BME280;40181;51.560;13.000;2023-02-23T12:10:36;100336.41;;;10.76;94.54
54270;BME280;40181;51.560;13.000;2023-02-23T12:13:15;100329.50;;;10.89;93.79
54270;BME280;40181;51.560;13.000;2023-02-23T12:15:54;100337.53;;;11.06;94.44
54270;BME280;40181;51.560;13.000;2023-02-23T12:18:40;100339.31;;;11.09;94.01
54270;BME280;40181;51.560;13.000;2023-02-23T12:21:26;100337.59;;;11.14;91.58
54270;BME280;40181;51.560;13.000;2023-02-23T12:24:07;100336.66;;;11.07;91.32
54270;BME280;40181;51.560;13.000;2023-02-23T12:26:45;100330.50;;;11.04;90.10
54270;BME280;40181;51.560;13.000;2023-02-23T12:29:21;100327.94;;;11.10;90.14
54270;BME280;40181;51.560;13.000;2023-02-23T12:31:57;100320.00;;;11.09;91.01
54270;BME280;40181;51.560;13.000;2023-02-23T12:34:32;100327.88;;;11.05;91.72
54270;BME280;40181;51.560;13.000;2023-02-23T12:37:17;100325.31;;;11.16;90.72
54270;BME280;40181;51.560;13.000;2023-02-23T12:39:57;100321.00;;;11.21;90.57
54270;BME280;40181;51.560;13.000;2023-02-23T12:42:39;100320.03;;;11.10;89.38
54270;BME280;40181;51.560;13.000;2023-02-23T12:45:19;100324.47;;;11.17;89.05
54270;BME280;40181;51.560;13.000;2023-02-23T12:47:54;100314.00;;;11.28;89.41
54270;BME280;40181;51.560;13.000;2023-02-23T12:50:32;100327.13;;;11.20;89.59
54270;BME280;40181;51.560;13.000;2023-02-23T12:53:20;100306.09;;;11.20;88.92
54270;BME280;40181;51.560;13.000;2023-02-23T12:56:05;100316.53;;;11.14;88.00
54270;BME280;40181;51.560;13.000;2023-02-23T12:58:48;100322.81;;;11.32;88.74
54270;BME280;40181;51.560;13.000;2023-02-23T13:01:27;100303.53;;;11.38;88.23
54270;BME280;40181;51.560;13.000;2023-02-23T13:04:16;100324.56;;;11.34;88.22
54270;BME280;40181;51.560;13.000;2023-02-23T13:07:05;100315.78;;;11.28;88.44
54270;BME280;40181;51.560;13.000;2023-02-23T13:09:54;100314.00;;;11.25;86.90
54270;BME280;40181;51.560;13.000;2023-02-23T13:12:39;100317.59;;;11.38;86.33
54270;BME280;40181;51.560;13.000;2023-02-23T13:15:21;100308.78;;;11.30;85.97
54270;BME280;40181;51.560;13.000;2023-02-23T13:17:57;100308.81;;;11.39;85.75
54270;BME280;40181;51.560;13.000;2023-02-23T13:20:36;100305.31;;;11.39;86.53
54270;BME280;40181;51.560;13.000;2023-02-23T13:23:19;100306.13;;;11.28;86.81
54270;BME280;40181;51.560;13.000;2023-02-23T13:26:00;100300.81;;;11.20;88.55
54270;BME280;40181;51.560;13.000;2023-02-23T13:28:45;100309.69;;;11.35;87.01